sensor_id;sensor_type;location;lat;lon;timestamp;P1;durP1;ratioP1;P2;durP2;ratioP2
52948;SDS011;38812;50.942;3.644;2022-12-17T00:00:57;64.10;;;23.90;;
52948;SDS011;38812;50.942;3.644;2022-12-17T00:03:42;56.13;;;22.75;;
52948;SDS011;38812;50.942;3.644;2022-12-17T00:06:26;42.58;;;21.85;;
52948;SDS011;38812;50.942;3.644;2022-12-17T00:09:10;58.55;;;24.13;;
52948;SDS011;38812;50.942;3.644;2022-12-17T00:11:54;52.05;;;22.95;;
52948;SDS011;38812;50.942;3.644;2022-12-17T00:14:38;51.35;;;23.00;;
52948;SDS011;38812;50.942;3.644;2022-12-17T00:17:22;46.63;;;21.38;;
52948;SDS011;38812;50.942;3.644;2022-12-17T00:20:23;41.70;;;21.73;;
52948;SDS011;38812;50.942;3.644;2022-12-17T00:23:07;55.33;;;22.48;;
52948;SDS011;38812;50.942;3.644;2022-12-17T00:25:51;50.13;;;24.00;;
52948;SDS011;38812;50.942;3.644;2022-12-17T00:28:37;46.60;;;21.60;;
52948;SDS011;38812;50.942;3.644;2022-12-17T00:31:21;46.40;;;21.50;;
52948;SDS011;38812;50.942;3.644;2022-12-17T00:34:06;44.78;;;21.65;;
52948;SDS011;38812;50.942;3.644;2022-12-17T00:36:50;45.17;;;21.83;;
52948;SDS011;38812;50.942;3.644;2022-12-17T00:39:34;58.65;;;22.92;;
52948;SDS011;38812;50.942;3.644;2022-12-17T00:42:18;58.63;;;23.05;;
52948;SDS011;38812;50.942;3.644;2022-12-17T00:45:02;58.70;;;22.88;;
52948;SDS011;38812;50.942;3.644;2022-12-17T00:47:47;60.05;;;24.52;;
52948;SDS011;38812;50.942;3.644;2022-12-17T00:50:31;50.80;;;23.52;;
52948;SDS011;38812;50.942;3.644;2022-12-17T00:53:15;60.75;;;23.15;;
52948;SDS011;38812;50.942;3.644;2022-12-17T00:55:59;58.15;;;21.58;;
52948;SDS011;38812;50.942;3.644;2022-12-17T00:58:43;57.20;;;22.70;;
52948;SDS011;38812;50.942;3.644;2022-12-17T01:01:27;60.28;;;24.20;;
52948;SDS011;38812;50.942;3.644;2022-12-17T01:04:11;66.05;;;24.10;;
52948;SDS011;38812;50.942;3.644;2022-12-17T01:06:55;56.90;;;23.35;;
52948;SDS011;38812;50.942;3.644;2022-12-17T01:09:39;50.92;;;25.13;;
52948;SDS011;38812;50.942;3.644;2022-12-17T01:12:23;53.55;;;23.73;;
52948;SDS011;38812;50.942;3.644;2022-12-17T01:15:07;49.58;;;25.75;;
52948;SDS011;38812;50.942;3.644;2022-12-17T01:17:51;56.67;;;25.45;;
52948;SDS011;38812;50.942;3.644;2022-12-17T01:20:35;52.45;;;23.88;;
52948;SDS011;38812;50.942;3.644;2022-12-17T01:23:19;55.42;;;26.15;;
52948;SDS011;38812;50.942;3.644;2022-12-17T01:26:02;67.60;;;25.95;;
52948;SDS011;38812;50.942;3.644;2022-12-17T01:28:46;47.47;;;23.48;;
52948;SDS011;38812;50.942;3.644;2022-12-17T01:31:30;46.70;;;24.13;;
52948;SDS011;38812;50.942;3.644;2022-12-17T01:34:14;49.90;;;25.13;;
52948;SDS011;38812;50.942;3.644;2022-12-17T01:36:58;59.58;;;23.52;;
52948;SDS011;38812;50.942;3.644;2022-12-17T01:39:42;49.72;;;24.33;;
52948;SDS011;38812;50.942;3.644;2022-12-17T01:42:26;49.13;;;23.75;;
52948;SDS011;38812;50.942;3.644;2022-12-17T01:45:23;49.40;;;23.02;;
52948;SDS011;38812;50.942;3.644;2022-12-17T01:48:10;47.05;;;22.65;;
52948;SDS011;38812;50.942;3.644;2022-12-17T01:50:57;50.33;;;22.88;;
52948;SDS011;38812;50.942;3.644;2022-12-17T01:53:43;57.33;;;23.02;;
52948;SDS011;38812;50.942;3.644;2022-12-17T01:56:31;46.42;;;23.02;;
52948;SDS011;38812;50.942;3.644;2022-12-17T01:59:17;54.38;;;22.70;;
52948;SDS011;38812;50.942;3.644;2022-12-17T02:02:04;45.65;;;21.95;;
52948;SDS011;38812;50.942;3.644;2022-12-17T02:04:48;43.22;;;21.90;;
52948;SDS011;38812;50.942;3.644;2022-12-17T02:13:09;42.53;;;19.48;;
52948;SDS011;38812;50.942;3.644;2022-12-17T02:16:00;50.03;;;22.98;;
52948;SDS011;38812;50.942;3.644;2022-12-17T02:18:56;49.40;;;22.38;;
52948;SDS011;38812;50.942;3.644;2022-12-17T02:21:53;65.88;;;23.77;;
52948;SDS011;38812;50.942;3.644;2022-12-17T02:24:46;65.40;;;22.20;;
52948;SDS011;38812;50.942;3.644;2022-12-17T02:27:38;43.95;;;19.60;;
52948;SDS011;38812;50.942;3.644;2022-12-17T02:30:22;49.67;;;20.45;;
52948;SDS011;38812;50.942;3.644;2022-12-17T02:33:06;68.95;;;21.77;;
52948;SDS011;38812;50.942;3.644;2022-12-17T02:35:52;46.25;;;20.00;;
52948;SDS011;38812;50.942;3.644;2022-12-17T02:38:42;47.25;;;19.95;;
52948;SDS011;38812;50.942;3.644;2022-12-17T02:41:38;39.72;;;20.08;;
52948;SDS011;38812;50.942;3.644;2022-12-17T02:44:26;44.05;;;18.77;;
52948;SDS011;38812;50.942;3.644;2022-12-17T02:47:12;52.78;;;22.52;;
52948;SDS011;38812;50.942;3.644;2022-12-17T02:49:57;42.08;;;19.83;;
52948;SDS011;38812;50.942;3.644;2022-12-17T02:52:43;54.17;;;21.23;;
52948;SDS011;38812;50.942;3.644;2022-12-17T02:55:30;52.58;;;21.52;;
52948;SDS011;38812;50.942;3.644;2022-12-17T02:58:15;46.67;;;21.48;;
52948;SDS011;38812;50.942;3.644;2022-12-17T03:00:59;43.63;;;21.88;;
52948;SDS011;38812;50.942;3.644;2022-12-17T03:03:43;41.88;;;19.45;;
52948;SDS011;38812;50.942;3.644;2022-12-17T03:06:27;38.88;;;19.23;;
52948;SDS011;38812;50.942;3.644;2022-12-17T03:09:11;44.92;;;20.55;;
52948;SDS011;38812;50.942;3.644;2022-12-17T03:11:55;40.95;;;20.42;;
52948;SDS011;38812;50.942;3.644;2022-12-17T03:14:39;50.53;;;20.75;;
52948;SDS011;38812;50.942;3.644;2022-12-17T03:17:23;40.03;;;19.95;;
52948;SDS011;38812;50.942;3.644;2022-12-17T03:20:07;39.17;;;20.75;;
52948;SDS011;38812;50.942;3.644;2022-12-17T03:22:51;38.92;;;20.40;;
52948;SDS011;38812;50.942;3.644;2022-12-17T03:25:35;39.78;;;20.55;;
52948;SDS011;38812;50.942;3.644;2022-12-17T03:28:19;38.63;;;20.63;;
52948;SDS011;38812;50.942;3.644;2022-12-17T03:31:03;47.97;;;20.77;;
52948;SDS011;38812;50.942;3.644;2022-12-17T03:33:47;43.33;;;19.08;;
52948;SDS011;38812;50.942;3.644;2022-12-17T03:36:31;41.33;;;21.88;;
52948;SDS011;38812;50.942;3.644;2022-12-17T03:39:15;51.90;;;21.52;;
52948;SDS011;38812;50.942;3.644;2022-12-17T03:41:59;43.55;;;21.27;;
52948;SDS011;38812;50.942;3.644;2022-12-17T03:44:43;45.50;;;21.25;;
52948;SDS011;38812;50.942;3.644;2022-12-17T03:47:27;44.50;;;20.85;;
52948;SDS011;38812;50.942;3.644;2022-12-17T03:50:11;54.75;;;22.13;;
52948;SDS011;38812;50.942;3.644;2022-12-17T03:52:55;47.08;;;21.90;;
52948;SDS011;38812;50.942;3.644;2022-12-17T03:55:46;41.05;;;18.65;;
52948;SDS011;38812;50.942;3.644;2022-12-17T03:58:30;40.35;;;22.13;;
52948;SDS011;38812;50.942;3.644;2022-12-17T04:01:14;45.55;;;20.65;;
52948;SDS011;38812;50.942;3.644;2022-12-17T04:03:58;44.35;;;22.10;;
52948;SDS011;38812;50.942;3.644;2022-12-17T04:06:42;46.53;;;21.45;;
52948;SDS011;38812;50.942;3.644;2022-12-17T04:09:26;47.72;;;22.90;;
52948;SDS011;38812;50.942;3.644;2022-12-17T04:12:10;41.45;;;21.40;;
52948;SDS011;38812;50.942;3.644;2022-12-17T04:14:54;42.00;;;19.98;;
52948;SDS011;38812;50.942;3.644;2022-12-17T04:17:37;48.75;;;22.67;;
52948;SDS011;38812;50.942;3.644;2022-12-17T04:20:21;43.78;;;22.02;;
52948;SDS011;38812;50.942;3.644;2022-12-17T04:23:05;41.08;;;22.80;;
52948;SDS011;38812;50.942;3.644;2022-12-17T04:25:49;49.95;;;21.02;;
52948;SDS011;38812;50.942;3.644;2022-12-17T04:28:33;61.55;;;24.52;;
52948;SDS011;38812;50.942;3.644;2022-12-17T04:31:17;43.88;;;21.45;;
52948;SDS011;38812;50.942;3.644;2022-12-17T04:34:01;54.25;;;23.17;;
52948;SDS011;38812;50.942;3.644;2022-12-17T04:36:45;43.50;;;22.20;;
52948;SDS011;38812;50.942;3.644;2022-12-17T04:39:29;57.22;;;23.98;;
52948;SDS011;38812;50.942;3.644;2022-12-17T04:42:15;59.10;;;24.23;;
52948;SDS011;38812;50.942;3.644;2022-12-17T04:44:59;50.47;;;23.00;;
52948;SDS011;38812;50.942;3.644;2022-12-17T04:47:43;48.85;;;22.25;;
52948;SDS011;38812;50.942;3.644;2022-12-17T04:50:27;56.67;;;25.17;;
52948;SDS011;38812;50.942;3.644;2022-12-17T04:53:11;45.60;;;21.73;;
52948;SDS011;38812;50.942;3.644;2022-12-17T04:55:55;48.22;;;24.33;;
52948;SDS011;38812;50.942;3.644;2022-12-17T04:58:39;48.20;;;24.30;;
52948;SDS011;38812;50.942;3.644;2022-12-17T05:01:33;42.50;;;21.90;;
52948;SDS011;38812;50.942;3.644;2022-12-17T05:04:17;51.20;;;23.50;;
52948;SDS011;38812;50.942;3.644;2022-12-17T05:07:01;46.38;;;22.67;;
52948;SDS011;38812;50.942;3.644;2022-12-17T05:09:45;49.20;;;22.98;;
52948;SDS011;38812;50.942;3.644;2022-12-17T05:12:29;48.50;;;22.38;;
52948;SDS011;38812;50.942;3.644;2022-12-17T05:15:13;61.13;;;24.85;;
52948;SDS011;38812;50.942;3.644;2022-12-17T05:18:04;50.97;;;23.02;;
52948;SDS011;38812;50.942;3.644;2022-12-17T05:20:51;51.75;;;21.35;;
52948;SDS011;38812;50.942;3.644;2022-12-17T05:23:35;54.92;;;23.10;;
52948;SDS011;38812;50.942;3.644;2022-12-17T05:26:20;43.97;;;21.08;;
52948;SDS011;38812;50.942;3.644;2022-12-17T05:29:06;53.72;;;24.25;;
52948;SDS011;38812;50.942;3.644;2022-12-17T05:31:50;43.10;;;21.02;;
52948;SDS011;38812;50.942;3.644;2022-12-17T05:34:34;43.88;;;21.27;;
52948;SDS011;38812;50.942;3.644;2022-12-17T05:37:18;48.63;;;21.63;;
52948;SDS011;38812;50.942;3.644;2022-12-17T05:40:03;47.42;;;22.70;;
52948;SDS011;38812;50.942;3.644;2022-12-17T05:42:58;42.30;;;19.95;;
52948;SDS011;38812;50.942;3.644;2022-12-17T05:45:43;45.42;;;21.27;;
52948;SDS011;38812;50.942;3.644;2022-12-17T05:48:28;43.58;;;22.40;;
52948;SDS011;38812;50.942;3.644;2022-12-17T05:51:13;41.10;;;21.08;;
52948;SDS011;38812;50.942;3.644;2022-12-17T05:53:57;43.08;;;21.83;;
52948;SDS011;38812;50.942;3.644;2022-12-17T05:56:41;48.95;;;22.45;;
52948;SDS011;38812;50.942;3.644;2022-12-17T05:59:25;43.38;;;22.95;;
52948;SDS011;38812;50.942;3.644;2022-12-17T06:02:10;46.25;;;21.75;;
52948;SDS011;38812;50.942;3.644;2022-12-17T06:04:54;49.72;;;22.60;;
52948;SDS011;38812;50.942;3.644;2022-12-17T06:07:38;41.28;;;22.08;;
52948;SDS011;38812;50.942;3.644;2022-12-17T06:10:21;44.33;;;22.35;;
52948;SDS011;38812;50.942;3.644;2022-12-17T06:13:05;40.05;;;21.27;;
52948;SDS011;38812;50.942;3.644;2022-12-17T06:15:49;43.30;;;21.25;;
52948;SDS011;38812;50.942;3.644;2022-12-17T06:18:34;46.28;;;21.25;;
52948;SDS011;38812;50.942;3.644;2022-12-17T06:21:19;46.67;;;21.35;;
52948;SDS011;38812;50.942;3.644;2022-12-17T06:24:03;45.13;;;21.38;;
52948;SDS011;38812;50.942;3.644;2022-12-17T06:26:48;46.08;;;20.88;;
52948;SDS011;38812;50.942;3.644;2022-12-17T06:29:31;47.45;;;22.27;;
52948;SDS011;38812;50.942;3.644;2022-12-17T06:32:15;38.28;;;19.98;;
52948;SDS011;38812;50.942;3.644;2022-12-17T06:34:59;47.70;;;19.75;;
52948;SDS011;38812;50.942;3.644;2022-12-17T06:37:43;42.22;;;21.70;;
52948;SDS011;38812;50.942;3.644;2022-12-17T06:40:27;42.40;;;20.63;;
52948;SDS011;38812;50.942;3.644;2022-12-17T06:43:11;38.95;;;19.45;;
52948;SDS011;38812;50.942;3.644;2022-12-17T06:45:55;39.60;;;20.02;;
52948;SDS011;38812;50.942;3.644;2022-12-17T06:48:39;43.80;;;21.33;;
52948;SDS011;38812;50.942;3.644;2022-12-17T06:51:23;40.83;;;19.33;;
52948;SDS011;38812;50.942;3.644;2022-12-17T06:54:07;42.10;;;21.20;;
52948;SDS011;38812;50.942;3.644;2022-12-17T06:56:51;42.42;;;21.80;;
52948;SDS011;38812;50.942;3.644;2022-12-17T06:59:35;43.75;;;20.73;;
52948;SDS011;38812;50.942;3.644;2022-12-17T07:02:18;42.67;;;19.90;;
52948;SDS011;38812;50.942;3.644;2022-12-17T07:05:02;41.15;;;20.23;;
52948;SDS011;38812;50.942;3.644;2022-12-17T07:07:48;56.65;;;22.27;;
52948;SDS011;38812;50.942;3.644;2022-12-17T07:10:38;41.05;;;19.35;;
52948;SDS011;38812;50.942;3.644;2022-12-17T07:13:22;46.50;;;20.58;;
52948;SDS011;38812;50.942;3.644;2022-12-17T07:16:06;46.15;;;19.27;;
52948;SDS011;38812;50.942;3.644;2022-12-17T07:18:50;39.67;;;21.70;;
52948;SDS011;38812;50.942;3.644;2022-12-17T07:21:34;49.45;;;21.30;;
52948;SDS011;38812;50.942;3.644;2022-12-17T07:24:18;35.55;;;20.50;;
52948;SDS011;38812;50.942;3.644;2022-12-17T07:27:02;43.95;;;20.73;;
52948;SDS011;38812;50.942;3.644;2022-12-17T07:29:45;43.28;;;21.30;;
52948;SDS011;38812;50.942;3.644;2022-12-17T07:32:29;53.22;;;22.98;;
52948;SDS011;38812;50.942;3.644;2022-12-17T07:35:13;47.33;;;22.85;;
52948;SDS011;38812;50.942;3.644;2022-12-17T07:37:58;44.78;;;22.83;;
52948;SDS011;38812;50.942;3.644;2022-12-17T07:40:44;49.05;;;22.05;;
52948;SDS011;38812;50.942;3.644;2022-12-17T07:43:28;50.25;;;25.40;;
52948;SDS011;38812;50.942;3.644;2022-12-17T07:46:12;48.67;;;23.00;;
52948;SDS011;38812;50.942;3.644;2022-12-17T07:49:16;46.28;;;22.65;;
52948;SDS011;38812;50.942;3.644;2022-12-17T07:52:00;51.10;;;22.55;;
52948;SDS011;38812;50.942;3.644;2022-12-17T07:54:44;48.42;;;21.67;;
52948;SDS011;38812;50.942;3.644;2022-12-17T07:57:27;50.50;;;24.63;;
52948;SDS011;38812;50.942;3.644;2022-12-17T08:00:12;45.83;;;23.13;;
52948;SDS011;38812;50.942;3.644;2022-12-17T08:03:07;51.10;;;24.20;;
52948;SDS011;38812;50.942;3.644;2022-12-17T08:05:50;51.47;;;23.33;;
52948;SDS011;38812;50.942;3.644;2022-12-17T08:08:34;56.90;;;25.60;;
52948;SDS011;38812;50.942;3.644;2022-12-17T08:11:18;48.67;;;23.58;;
52948;SDS011;38812;50.942;3.644;2022-12-17T08:14:03;54.40;;;24.65;;
52948;SDS011;38812;50.942;3.644;2022-12-17T08:16:47;53.40;;;25.52;;
52948;SDS011;38812;50.942;3.644;2022-12-17T08:19:31;58.50;;;26.77;;
52948;SDS011;38812;50.942;3.644;2022-12-17T08:22:15;65.80;;;27.40;;
52948;SDS011;38812;50.942;3.644;2022-12-17T08:24:59;57.15;;;27.35;;
52948;SDS011;38812;50.942;3.644;2022-12-17T08:27:43;69.13;;;30.73;;
52948;SDS011;38812;50.942;3.644;2022-12-17T08:30:26;58.63;;;28.35;;
52948;SDS011;38812;50.942;3.644;2022-12-17T08:33:10;69.72;;;30.67;;
52948;SDS011;38812;50.942;3.644;2022-12-17T08:35:55;68.45;;;33.28;;
52948;SDS011;38812;50.942;3.644;2022-12-17T08:38:40;68.32;;;32.40;;
52948;SDS011;38812;50.942;3.644;2022-12-17T08:41:25;59.35;;;31.60;;
52948;SDS011;38812;50.942;3.644;2022-12-17T08:44:10;59.33;;;30.23;;
52948;SDS011;38812;50.942;3.644;2022-12-17T08:46:54;56.90;;;31.02;;
52948;SDS011;38812;50.942;3.644;2022-12-17T08:49:38;65.38;;;30.60;;
52948;SDS011;38812;50.942;3.644;2022-12-17T08:52:22;57.05;;;30.08;;
52948;SDS011;38812;50.942;3.644;2022-12-17T08:55:06;60.83;;;29.58;;
52948;SDS011;38812;50.942;3.644;2022-12-17T08:57:54;59.55;;;29.88;;
52948;SDS011;38812;50.942;3.644;2022-12-17T09:00:39;50.50;;;25.13;;
52948;SDS011;38812;50.942;3.644;2022-12-17T09:03:24;56.80;;;26.30;;
52948;SDS011;38812;50.942;3.644;2022-12-17T09:06:08;56.40;;;26.77;;
52948;SDS011;38812;50.942;3.644;2022-12-17T09:08:52;56.65;;;28.15;;
52948;SDS011;38812;50.942;3.644;2022-12-17T09:11:36;42.08;;;25.92;;
52948;SDS011;38812;50.942;3.644;2022-12-17T09:14:20;49.80;;;26.45;;
52948;SDS011;38812;50.942;3.644;2022-12-17T09:17:04;50.40;;;26.23;;
52948;SDS011;38812;50.942;3.644;2022-12-17T09:19:48;48.60;;;26.13;;
52948;SDS011;38812;50.942;3.644;2022-12-17T09:22:32;51.67;;;26.27;;
52948;SDS011;38812;50.942;3.644;2022-12-17T09:25:16;49.95;;;25.83;;
52948;SDS011;38812;50.942;3.644;2022-12-17T09:28:00;50.85;;;26.45;;
52948;SDS011;38812;50.942;3.644;2022-12-17T09:30:45;50.13;;;26.88;;
52948;SDS011;38812;50.942;3.644;2022-12-17T09:33:29;49.55;;;24.63;;
52948;SDS011;38812;50.942;3.644;2022-12-17T09:36:13;52.38;;;26.83;;
52948;SDS011;38812;50.942;3.644;2022-12-17T09:38:57;52.05;;;27.25;;
52948;SDS011;38812;50.942;3.644;2022-12-17T09:44:41;46.92;;;26.08;;
52948;SDS011;38812;50.942;3.644;2022-12-17T09:50:37;53.22;;;26.27;;
52948;SDS011;38812;50.942;3.644;2022-12-17T09:53:34;51.45;;;23.55;;
52948;SDS011;38812;50.942;3.644;2022-12-17T09:56:22;52.92;;;30.70;;
52948;SDS011;38812;50.942;3.644;2022-12-17T09:59:10;54.67;;;29.23;;
52948;SDS011;38812;50.942;3.644;2022-12-17T10:02:07;63.05;;;30.65;;
52948;SDS011;38812;50.942;3.644;2022-12-17T10:04:55;62.40;;;31.38;;
52948;SDS011;38812;50.942;3.644;2022-12-17T10:07:41;57.70;;;28.65;;
52948;SDS011;38812;50.942;3.644;2022-12-17T10:10:29;61.15;;;32.00;;
52948;SDS011;38812;50.942;3.644;2022-12-17T10:13:19;61.17;;;30.88;;
52948;SDS011;38812;50.942;3.644;2022-12-17T10:16:24;59.88;;;32.10;;
52948;SDS011;38812;50.942;3.644;2022-12-17T10:22:12;67.72;;;33.05;;
52948;SDS011;38812;50.942;3.644;2022-12-17T10:25:00;65.80;;;31.88;;
52948;SDS011;38812;50.942;3.644;2022-12-17T10:28:04;61.33;;;34.90;;
52948;SDS011;38812;50.942;3.644;2022-12-17T10:30:52;58.22;;;32.95;;
52948;SDS011;38812;50.942;3.644;2022-12-17T10:33:38;62.40;;;33.25;;
52948;SDS011;38812;50.942;3.644;2022-12-17T10:36:23;59.65;;;33.30;;
52948;SDS011;38812;50.942;3.644;2022-12-17T10:39:22;66.22;;;35.35;;
52948;SDS011;38812;50.942;3.644;2022-12-17T10:45:25;56.10;;;32.90;;
52948;SDS011;38812;50.942;3.644;2022-12-17T10:48:24;67.22;;;34.38;;
52948;SDS011;38812;50.942;3.644;2022-12-17T10:51:18;74.72;;;35.90;;
52948;SDS011;38812;50.942;3.644;2022-12-17T10:54:18;60.70;;;33.95;;
52948;SDS011;38812;50.942;3.644;2022-12-17T10:57:06;57.03;;;32.65;;
52948;SDS011;38812;50.942;3.644;2022-12-17T11:00:13;63.75;;;31.50;;
52948;SDS011;38812;50.942;3.644;2022-12-17T11:02:59;60.97;;;32.25;;
52948;SDS011;38812;50.942;3.644;2022-12-17T11:05:44;62.17;;;32.53;;
52948;SDS011;38812;50.942;3.644;2022-12-17T11:08:30;61.78;;;32.50;;
52948;SDS011;38812;50.942;3.644;2022-12-17T11:11:14;57.78;;;29.45;;
52948;SDS011;38812;50.942;3.644;2022-12-17T11:13:59;65.90;;;33.58;;
52948;SDS011;38812;50.942;3.644;2022-12-17T11:16:49;54.38;;;31.58;;
52948;SDS011;38812;50.942;3.644;2022-12-17T11:19:37;51.55;;;29.98;;
52948;SDS011;38812;50.942;3.644;2022-12-17T11:22:39;55.53;;;31.83;;
52948;SDS011;38812;50.942;3.644;2022-12-17T11:25:31;57.00;;;30.15;;
52948;SDS011;38812;50.942;3.644;2022-12-17T11:28:36;51.58;;;30.75;;
52948;SDS011;38812;50.942;3.644;2022-12-17T11:44:17;52.20;;;29.98;;
52948;SDS011;38812;50.942;3.644;2022-12-17T11:47:11;53.35;;;29.73;;
52948;SDS011;38812;50.942;3.644;2022-12-17T11:50:19;53.05;;;29.23;;
52948;SDS011;38812;50.942;3.644;2022-12-17T11:59:27;52.53;;;28.73;;
52948;SDS011;38812;50.942;3.644;2022-12-17T12:23:17;49.88;;;27.65;;
52948;SDS011;38812;50.942;3.644;2022-12-17T12:35:26;49.03;;;28.13;;
52948;SDS011;38812;50.942;3.644;2022-12-17T12:38:25;48.08;;;27.63;;
52948;SDS011;38812;50.942;3.644;2022-12-17T12:41:38;52.50;;;27.67;;
52948;SDS011;38812;50.942;3.644;2022-12-17T12:47:42;48.88;;;27.00;;
52948;SDS011;38812;50.942;3.644;2022-12-17T12:53:57;49.65;;;27.00;;
52948;SDS011;38812;50.942;3.644;2022-12-17T12:56:42;48.28;;;27.00;;
52948;SDS011;38812;50.942;3.644;2022-12-17T12:59:31;54.28;;;28.80;;
52948;SDS011;38812;50.942;3.644;2022-12-17T13:02:21;55.72;;;28.95;;
52948;SDS011;38812;50.942;3.644;2022-12-17T13:10:47;48.95;;;28.63;;
52948;SDS011;38812;50.942;3.644;2022-12-17T13:15:40;50.55;;;29.08;;
52948;SDS011;38812;50.942;3.644;2022-12-17T13:20:56;49.40;;;28.80;;
52948;SDS011;38812;50.942;3.644;2022-12-17T13:23:28;51.40;;;28.90;;
52948;SDS011;38812;50.942;3.644;2022-12-17T13:28:42;53.20;;;29.73;;
52948;SDS011;38812;50.942;3.644;2022-12-17T13:31:14;50.65;;;28.50;;
52948;SDS011;38812;50.942;3.644;2022-12-17T13:34:16;56.65;;;30.10;;
52948;SDS011;38812;50.942;3.644;2022-12-17T13:42:47;54.42;;;30.45;;
52948;SDS011;38812;50.942;3.644;2022-12-17T13:45:16;44.03;;;26.35;;
52948;SDS011;38812;50.942;3.644;2022-12-17T13:47:51;49.25;;;29.02;;
52948;SDS011;38812;50.942;3.644;2022-12-17T13:50:24;58.63;;;30.83;;
52948;SDS011;38812;50.942;3.644;2022-12-17T13:52:52;58.55;;;32.03;;
52948;SDS011;38812;50.942;3.644;2022-12-17T13:55:19;57.97;;;30.05;;
52948;SDS011;38812;50.942;3.644;2022-12-17T13:57:47;53.70;;;29.73;;
52948;SDS011;38812;50.942;3.644;2022-12-17T14:00:22;55.50;;;29.77;;
52948;SDS011;38812;50.942;3.644;2022-12-17T14:02:49;54.17;;;29.52;;
52948;SDS011;38812;50.942;3.644;2022-12-17T14:05:23;53.22;;;29.55;;
52948;SDS011;38812;50.942;3.644;2022-12-17T14:07:48;54.53;;;29.60;;
52948;SDS011;38812;50.942;3.644;2022-12-17T14:10:15;62.13;;;31.90;;
52948;SDS011;38812;50.942;3.644;2022-12-17T14:12:42;54.28;;;29.42;;
52948;SDS011;38812;50.942;3.644;2022-12-17T14:15:26;52.75;;;28.83;;
52948;SDS011;38812;50.942;3.644;2022-12-17T14:17:56;53.80;;;29.80;;
52948;SDS011;38812;50.942;3.644;2022-12-17T14:20:32;58.72;;;31.80;;
52948;SDS011;38812;50.942;3.644;2022-12-17T14:23:01;59.75;;;33.75;;
52948;SDS011;38812;50.942;3.644;2022-12-17T14:25:34;58.50;;;32.92;;
52948;SDS011;38812;50.942;3.644;2022-12-17T14:30:37;66.25;;;32.17;;
52948;SDS011;38812;50.942;3.644;2022-12-17T14:33:23;65.05;;;33.55;;
52948;SDS011;38812;50.942;3.644;2022-12-17T14:35:50;59.33;;;30.48;;
52948;SDS011;38812;50.942;3.644;2022-12-17T14:38:18;58.10;;;31.85;;
52948;SDS011;38812;50.942;3.644;2022-12-17T14:40:44;56.22;;;31.77;;
52948;SDS011;38812;50.942;3.644;2022-12-17T14:43:09;59.25;;;29.63;;
52948;SDS011;38812;50.942;3.644;2022-12-17T14:45:38;59.42;;;32.13;;
52948;SDS011;38812;50.942;3.644;2022-12-17T14:48:32;65.72;;;31.67;;
52948;SDS011;38812;50.942;3.644;2022-12-17T14:51:22;64.25;;;28.83;;
52948;SDS011;38812;50.942;3.644;2022-12-17T14:56:38;60.20;;;31.85;;
52948;SDS011;38812;50.942;3.644;2022-12-17T14:59:04;56.88;;;29.58;;
52948;SDS011;38812;50.942;3.644;2022-12-17T15:01:30;61.75;;;32.45;;
52948;SDS011;38812;50.942;3.644;2022-12-17T15:03:56;65.30;;;30.92;;
52948;SDS011;38812;50.942;3.644;2022-12-17T15:06:23;55.95;;;29.58;;
52948;SDS011;38812;50.942;3.644;2022-12-17T15:08:50;65.55;;;33.45;;
52948;SDS011;38812;50.942;3.644;2022-12-17T15:11:18;59.53;;;32.35;;
52948;SDS011;38812;50.942;3.644;2022-12-17T15:13:45;58.33;;;31.85;;
52948;SDS011;38812;50.942;3.644;2022-12-17T15:16:10;59.35;;;31.70;;
52948;SDS011;38812;50.942;3.644;2022-12-17T15:18:37;71.07;;;34.10;;
52948;SDS011;38812;50.942;3.644;2022-12-17T15:21:02;60.90;;;32.92;;
52948;SDS011;38812;50.942;3.644;2022-12-17T15:23:29;74.13;;;35.15;;
52948;SDS011;38812;50.942;3.644;2022-12-17T15:25:55;66.90;;;33.30;;
52948;SDS011;38812;50.942;3.644;2022-12-17T15:28:20;73.97;;;33.78;;
52948;SDS011;38812;50.942;3.644;2022-12-17T15:30:47;65.25;;;32.20;;
52948;SDS011;38812;50.942;3.644;2022-12-17T15:33:13;73.75;;;34.63;;
52948;SDS011;38812;50.942;3.644;2022-12-17T15:35:39;72.93;;;33.95;;
52948;SDS011;38812;50.942;3.644;2022-12-17T15:38:05;69.15;;;32.80;;
52948;SDS011;38812;50.942;3.644;2022-12-17T15:40:32;76.25;;;33.08;;
52948;SDS011;38812;50.942;3.644;2022-12-17T15:43:00;70.57;;;32.92;;
52948;SDS011;38812;50.942;3.644;2022-12-17T15:45:38;61.38;;;31.90;;
52948;SDS011;38812;50.942;3.644;2022-12-17T15:48:03;74.35;;;34.00;;
52948;SDS011;38812;50.942;3.644;2022-12-17T15:50:29;72.90;;;33.45;;
52948;SDS011;38812;50.942;3.644;2022-12-17T15:52:54;70.30;;;33.08;;
52948;SDS011;38812;50.942;3.644;2022-12-17T15:55:20;81.75;;;38.10;;
52948;SDS011;38812;50.942;3.644;2022-12-17T15:57:45;77.57;;;35.95;;
52948;SDS011;38812;50.942;3.644;2022-12-17T16:00:11;79.78;;;34.90;;
52948;SDS011;38812;50.942;3.644;2022-12-17T16:02:36;86.95;;;36.28;;
52948;SDS011;38812;50.942;3.644;2022-12-17T16:05:02;78.25;;;35.83;;
52948;SDS011;38812;50.942;3.644;2022-12-17T16:07:29;86.43;;;37.78;;
52948;SDS011;38812;50.942;3.644;2022-12-17T16:09:54;74.97;;;34.10;;
52948;SDS011;38812;50.942;3.644;2022-12-17T16:12:20;84.20;;;36.33;;
52948;SDS011;38812;50.942;3.644;2022-12-17T16:14:45;82.88;;;35.50;;
52948;SDS011;38812;50.942;3.644;2022-12-17T16:17:10;79.00;;;36.83;;
52948;SDS011;38812;50.942;3.644;2022-12-17T16:19:36;82.05;;;35.55;;
52948;SDS011;38812;50.942;3.644;2022-12-17T16:22:01;81.75;;;35.53;;
52948;SDS011;38812;50.942;3.644;2022-12-17T16:24:27;84.65;;;38.05;;
52948;SDS011;38812;50.942;3.644;2022-12-17T16:26:52;86.00;;;36.70;;
52948;SDS011;38812;50.942;3.644;2022-12-17T16:29:18;82.75;;;36.75;;
52948;SDS011;38812;50.942;3.644;2022-12-17T16:31:43;90.32;;;37.03;;
52948;SDS011;38812;50.942;3.644;2022-12-17T16:34:10;81.05;;;35.40;;
52948;SDS011;38812;50.942;3.644;2022-12-17T16:36:36;81.00;;;35.38;;
52948;SDS011;38812;50.942;3.644;2022-12-17T16:39:02;83.78;;;38.08;;
52948;SDS011;38812;50.942;3.644;2022-12-17T16:41:28;84.05;;;38.38;;
52948;SDS011;38812;50.942;3.644;2022-12-17T16:43:54;79.65;;;35.65;;
52948;SDS011;38812;50.942;3.644;2022-12-17T16:48:58;93.53;;;38.55;;
52948;SDS011;38812;50.942;3.644;2022-12-17T16:51:29;80.43;;;37.63;;
52948;SDS011;38812;50.942;3.644;2022-12-17T16:53:55;81.35;;;37.47;;
52948;SDS011;38812;50.942;3.644;2022-12-17T16:56:22;73.80;;;36.20;;
52948;SDS011;38812;50.942;3.644;2022-12-17T16:58:49;78.85;;;36.45;;
52948;SDS011;38812;50.942;3.644;2022-12-17T17:01:18;89.32;;;39.60;;
52948;SDS011;38812;50.942;3.644;2022-12-17T17:03:44;90.05;;;40.20;;
52948;SDS011;38812;50.942;3.644;2022-12-17T17:06:10;80.65;;;39.92;;
52948;SDS011;38812;50.942;3.644;2022-12-17T17:08:36;82.55;;;39.65;;
52948;SDS011;38812;50.942;3.644;2022-12-17T17:11:21;87.75;;;39.08;;
52948;SDS011;38812;50.942;3.644;2022-12-17T17:13:49;89.32;;;43.45;;
52948;SDS011;38812;50.942;3.644;2022-12-17T17:16:18;91.00;;;42.08;;
52948;SDS011;38812;50.942;3.644;2022-12-17T17:18:45;104.95;;;45.60;;
52948;SDS011;38812;50.942;3.644;2022-12-17T17:21:30;110.80;;;47.13;;
52948;SDS011;38812;50.942;3.644;2022-12-17T17:24:02;92.35;;;39.70;;
52948;SDS011;38812;50.942;3.644;2022-12-17T17:26:31;91.68;;;39.42;;